Time;durP1;ratioP1;P1;durP2;ratioP2;P2;SDS_P1;SDS_P2;PMS_P1;PMS_P2;Temp;Humidity;BMP_temperature;BMP_pressure;BME280_temperature;BME280_humidity;BME280_pressure;Samples;Min_cycle;Max_cycle;Signal;HPM_P1;HPM_P2
2023/10/08 00:02:25;;;;;;;17.40;9.27;;;;;;;-141.97;47.21;47446.03;5053131;28;20161;-90
2023/10/08 00:04:51;;;;;;;19.23;10.07;;;;;;;-141.97;46.75;47644.00;5034561;28;20532;-89
2023/10/08 00:07:21;;;;;;;20.43;10.03;;;;;;;-141.97;46.50;47476.78;5054177;28;20173;-88
2023/10/08 00:09:48;;;;;;;20.57;10.67;;;;;;;-141.97;46.40;47597.88;5056263;28;20181;-89
2023/10/08 00:12:16;;;;;;;22.63;10.33;;;;;;;-141.97;46.04;47499.84;5058883;28;20157;-88
2023/10/08 00:14:44;;;;;;;22.57;10.47;;;;;;;-141.97;45.72;47647.84;5038245;28;20568;-89
2023/10/08 00:17:13;;;;;;;16.37;9.60;;;;;;;-141.97;44.91;47480.63;5034961;28;20284;-87
2023/10/08 00:19:42;;;;;;;20.00;10.73;;;;;;;-141.97;44.28;47457.56;5054302;28;20173;-89
2023/10/08 00:22:09;;;;;;;24.53;11.63;;;;;;;-141.97;44.08;47371.09;5054655;28;20564;-88
2023/10/08 00:24:34;;;;;;;21.90;10.50;;;;;;;-141.97;43.81;47438.34;5035108;28;20228;-87
2023/10/08 00:27:06;;;;;;;20.47;10.37;;;;;;;-141.97;43.90;47482.56;5035669;28;20169;-87
2023/10/08 00:29:32;;;;;;;17.97;9.70;;;;;;;-141.97;43.73;47509.47;5054408;28;20154;-86
2023/10/08 00:31:58;;;;;;;19.97;10.33;;;;;;;-141.97;43.62;47536.38;5056959;28;20170;-87
2023/10/08 00:34:24;;;;;;;19.57;10.13;;;;;;;-141.97;43.84;47396.06;5054546;28;20157;-87
2023/10/08 00:36:50;;;;;;;18.53;10.00;;;;;;;-141.97;43.92;47519.06;5052213;28;20593;-88
2023/10/08 00:39:23;;;;;;;20.30;9.43;;;;;;;-141.97;44.01;47515.22;5057761;28;20712;-89
2023/10/08 00:41:50;;;;;;;20.63;10.37;;;;;;;-141.97;44.37;47440.28;5037717;28;20665;-90
2023/10/08 00:44:22;;;;;;;23.07;10.43;;;;;;;-141.97;44.54;47392.22;5062810;28;20550;-89
2023/10/08 00:46:49;;;;;;;19.17;10.17;;;;;;;-141.97;44.88;47430.66;5042645;28;20177;-89
2023/10/08 00:54:48;;;;;;;16.77;9.67;;;;;;;-141.97;47.20;47386.47;5051879;28;20183;-89
2023/10/08 00:57:21;;;;;;;16.40;9.07;;;;;;;-141.97;47.54;47388.38;5034347;28;20157;-90
2023/10/08 00:59:53;;;;;;;16.73;8.23;;;;;;;-141.97;47.33;47363.41;5033636;28;20172;-89
2023/10/08 01:02:24;;;;;;;19.37;9.17;;;;;;;-141.97;47.71;47461.41;5051554;28;20160;-89
2023/10/08 01:04:54;;;;;;;15.37;8.90;;;;;;;-141.97;47.34;47503.69;5033177;28;20165;-90
2023/10/08 01:07:21;;;;;;;16.30;8.10;;;;;;;-141.97;47.51;47453.72;5034501;28;20215;-88
2023/10/08 01:09:51;;;;;;;15.17;8.60;;;;;;;-141.97;47.16;47407.59;5052069;28;20177;-88
2023/10/08 01:12:29;;;;;;;16.73;9.00;;;;;;;-141.97;47.52;47507.53;5033448;28;20165;-88
2023/10/08 01:14:55;;;;;;;14.30;8.50;;;;;;;-141.97;47.86;47467.19;5033147;28;20172;-88
2023/10/08 01:17:25;;;;;;;15.53;8.80;;;;;;;-141.97;47.73;47532.53;5051209;28;20153;-87
2023/10/08 01:20:05;;;;;;;17.37;8.30;;;;;;;-141.97;47.99;47496.00;5036813;28;20157;-85
2023/10/08 01:22:30;;;;;;;14.73;8.80;;;;;;;-141.97;47.54;47626.72;5051823;28;20149;-87
2023/10/08 01:24:56;;;;;;;17.50;9.43;;;;;;;-141.97;47.51;47488.31;5053110;28;20209;-88
2023/10/08 01:27:23;;;;;;;96.97;50.00;;;;;;;-141.97;47.33;47609.41;5055158;28;20191;-88
2023/10/08 01:29:50;;;;;;;64.13;34.67;;;;;;;-141.97;47.49;47478.72;5036968;28;20169;-88
2023/10/08 01:32:16;;;;;;;40.00;24.30;;;;;;;-141.97;47.78;47567.13;5039207;28;20279;-88
2023/10/08 01:34:45;;;;;;;33.23;18.73;;;;;;;-141.97;47.44;47669.00;5075797;28;20161;-86
2023/10/08 01:37:19;;;;;;;23.47;12.67;;;;;;;-141.97;47.21;47492.16;5073087;28;20184;-88
2023/10/08 01:39:45;;;;;;;21.17;12.50;;;;;;;-141.97;47.18;47486.41;5077819;28;20153;-87
2023/10/08 01:42:17;;;;;;;15.90;9.67;;;;;;;-141.97;46.66;47488.31;5068812;28;20169;-89
2023/10/08 01:44:48;;;;;;;12.87;7.50;;;;;;;-141.97;45.72;47438.34;5055483;28;20158;-88
2023/10/08 01:47:16;;;;;;;13.40;6.93;;;;;;;-141.97;44.63;47403.75;5055097;28;20165;-88
2023/10/08 01:49:46;;;;;;;9.60;5.97;;;;;;;-141.97;43.65;47457.56;5055100;28;20204;-89
2023/10/08 01:52:22;;;;;;;11.40;6.27;;;;;;;-141.97;43.64;47419.13;5036952;28;20203;-87
2023/10/08 01:54:54;;;;;;;10.77;6.60;;;;;;;-141.97;42.91;47463.34;5054972;28;20157;-87
2023/10/08 01:57:19;;;;;;;13.87;6.73;;;;;;;-141.97;42.80;47490.25;5036992;28;20307;-89
2023/10/08 01:59:45;;;;;;;11.53;5.70;;;;;;;-141.97;42.87;47476.78;5036556;28;20201;-88
2023/10/08 02:02:12;;;;;;;11.67;6.30;;;;;;;-141.97;42.96;47496.00;5036620;28;20583;-86
2023/10/08 02:04:38;;;;;;;11.53;6.50;;;;;;;-141.97;43.24;47407.59;5036623;28;20522;-87
2023/10/08 02:07:04;;;;;;;10.27;5.77;;;;;;;-141.97;43.43;47447.97;5054742;28;20204;-89
2023/10/08 02:09:30;;;;;;;13.27;6.90;;;;;;;-141.97;43.47;47478.72;5054755;28;20625;-87
2023/10/08 02:11:56;;;;;;;12.57;6.90;;;;;;;-141.97;43.36;47590.19;5054864;28;20256;-88
2023/10/08 02:14:22;;;;;;;12.73;6.97;;;;;;;-141.97;43.18;47342.25;5054742;28;20185;-88
2023/10/08 02:16:56;;;;;;;12.07;6.57;;;;;;;-141.97;43.15;47409.53;5054479;28;20633;-87
2023/10/08 02:19:26;;;;;;;13.13;7.60;;;;;;;-141.97;42.95;47486.41;5036830;28;20192;-90
2023/10/08 02:21:54;;;;;;;11.27;6.97;;;;;;;-141.97;42.93;47484.47;5037037;28;20176;-91
2023/10/08 02:24:21;;;;;;;12.80;7.33;;;;;;;-141.97;42.26;47617.09;5036787;28;20805;-90
2023/10/08 02:26:47;;;;;;;14.80;7.60;;;;;;;-141.97;41.76;47607.50;5054497;28;20157;-91
2023/10/08 02:29:13;;;;;;;17.53;8.10;;;;;;;-141.97;41.32;47595.97;5036771;28;20177;-91
2023/10/08 02:31:39;;;;;;;14.73;7.97;;;;;;;-141.97;41.44;47403.75;5057892;28;20165;-91
2023/10/08 02:34:09;;;;;;;18.83;9.37;;;;;;;-141.97;41.12;47392.22;5036236;28;20197;-90
2023/10/08 02:36:40;;;;;;;19.77;9.20;;;;;;;-141.97;40.99;47511.38;5053674;28;20240;-89
2023/10/08 02:39:21;;;;;;;22.37;11.03;;;;;;;-141.97;40.95;47453.72;5037020;28;20169;-90
2023/10/08 02:41:49;;;;;;;16.60;9.43;;;;;;;-141.97;41.19;47488.31;5035887;28;20173;-85
2023/10/08 02:44:16;;;;;;;18.47;9.50;;;;;;;-141.97;41.46;47505.63;5053876;28;20189;-86
2023/10/08 02:46:50;;;;;;;18.13;9.20;;;;;;;-141.97;41.92;47488.31;5053814;28;20303;-87
2023/10/08 02:49:20;;;;;;;20.30;9.57;;;;;;;-141.97;42.17;47461.41;5053421;28;20162;-89
2023/10/08 02:51:46;;;;;;;17.27;8.70;;;;;;;-141.97;42.11;47480.63;5053627;28;20181;-88
2023/10/08 02:54:17;;;;;;;15.83;8.50;;;;;;;-141.97;42.08;47484.47;5035664;28;20201;-87
2023/10/08 02:56:51;;;;;;;12.37;7.33;;;;;;;-141.97;42.27;47492.16;5053672;28;20162;-88
2023/10/08 02:59:22;;;;;;;14.37;7.97;;;;;;;-141.97;42.07;47365.31;5044641;28;20169;-88
2023/10/08 03:01:49;;;;;;;13.47;7.73;;;;;;;-141.97;42.08;47376.84;5069255;28;20185;-88
2023/10/08 03:04:18;;;;;;;13.17;7.63;;;;;;;-141.97;41.99;47422.97;5050090;28;20161;-88
2023/10/08 03:06:50;;;;;;;15.50;8.10;;;;;;;-141.97;41.30;47617.09;5040331;28;20197;-90
2023/10/08 03:09:31;;;;;;;12.93;7.67;;;;;;;-141.97;41.01;47280.75;5035956;28;20189;-88
2023/10/08 03:11:58;;;;;;;13.20;7.13;;;;;;;-141.97;40.83;47634.41;5036563;28;20166;-89
2023/10/08 03:14:23;;;;;;;14.03;6.33;;;;;;;-141.97;40.29;47461.41;5037910;28;20197;-89
2023/10/08 03:16:51;;;;;;;11.93;6.87;;;;;;;-141.97;40.14;47467.19;5057158;28;20169;-89
2023/10/08 03:19:20;;;;;;;13.97;7.07;;;;;;;-141.97;39.86;47626.72;5055434;28;20617;-88
2023/10/08 03:21:56;;;;;;;13.43;7.10;;;;;;;-141.97;39.80;47403.75;5055771;28;20589;-88
2023/10/08 03:24:37;;;;;;;13.17;7.63;;;;;;;-141.97;40.11;47630.56;5057186;28;20228;-88
2023/10/08 03:27:07;;;;;;;15.33;7.57;;;;;;;-141.97;40.46;47644.00;5055863;28;20161;-88
2023/10/08 03:29:42;;;;;;;12.50;7.07;;;;;;;-141.97;40.50;47369.16;5061624;28;20216;-87
2023/10/08 03:32:13;;;;;;;18.37;8.67;;;;;;;-141.97;40.53;47484.47;5036631;28;20648;-90
2023/10/08 03:34:43;;;;;;;16.67;7.40;;;;;;;-141.97;40.69;47492.16;5035154;28;20196;-87
2023/10/08 03:37:09;;;;;;;12.20;7.53;;;;;;;-141.97;40.61;47382.63;5052374;28;20254;-84
2023/10/08 03:40:00;;;;;;;14.53;8.10;;;;;;;-141.97;40.57;47336.50;5052685;28;20203;-83
2023/10/08 03:42:33;;;;;;;14.60;8.20;;;;;;;-141.97;40.43;47496.00;5052726;28;20241;-84
2023/10/08 03:45:09;;;;;;;15.73;8.10;;;;;;;-141.97;40.62;47419.13;5070294;28;20165;-84
2023/10/08 03:47:37;;;;;;;19.17;9.00;;;;;;;-141.97;40.49;47526.75;5066234;28;20382;-86
2023/10/08 03:50:05;;;;;;;22.50;9.83;;;;;;;-141.97;40.29;47488.31;5070167;28;20225;-85
2023/10/08 03:52:31;;;;;;;19.30;9.40;;;;;;;-141.97;40.46;47330.72;5065138;28;20573;-83
2023/10/08 03:55:13;;;;;;;17.83;8.73;;;;;;;-141.97;40.73;47469.09;5052778;28;20169;-86
2023/10/08 03:57:41;;;;;;;15.77;7.83;;;;;;;-141.97;41.14;47480.63;5034361;28;20647;-84
2023/10/08 04:00:17;;;;;;;11.97;7.50;;;;;;;-141.97;41.17;47469.09;5052087;28;20162;-84
2023/10/08 04:02:54;;;;;;;9.90;5.87;;;;;;;-141.97;41.48;47478.72;5052666;28;20633;-85
2023/10/08 04:05:21;;;;;;;12.30;6.73;;;;;;;-141.97;41.21;47486.41;5052953;28;20249;-84
2023/10/08 04:13:09;;;;;;;10.10;6.20;;;;;;;-141.97;40.75;47465.25;5047694;28;20212;-85
2023/10/08 04:15:40;;;;;;;10.87;6.57;;;;;;;-141.97;40.63;47488.31;5032665;28;20162;-86
2023/10/08 04:18:09;;;;;;;9.20;5.93;;;;;;;-141.97;40.39;47453.72;5022483;28;20276;-89
2023/10/08 04:20:38;;;;;;;8.70;5.60;;;;;;;-141.97;40.59;47471.03;5034410;28;20169;-88
2023/10/08 04:23:18;;;;;;;9.57;5.73;;;;;;;-141.97;40.74;47503.69;5052761;28;20547;-87
2023/10/08 04:25:44;;;;;;;9.23;5.30;;;;;;;-141.97;41.07;47463.34;5052198;28;20216;-87
2023/10/08 04:28:17;;;;;;;10.10;5.80;;;;;;;-141.97;41.41;47492.16;5052252;28;20192;-91
2023/10/08 04:30:45;;;;;;;10.40;6.23;;;;;;;-141.97;41.58;47526.75;5034836;28;20204;-91
2023/10/08 04:33:14;;;;;;;9.37;5.87;;;;;;;-141.97;41.15;47630.56;5035669;28;20190;-91
2023/10/08 04:35:55;;;;;;;10.60;6.23;;;;;;;-141.97;40.99;47496.00;5034852;28;20219;-89
2023/10/08 04:38:23;;;;;;;12.57;7.03;;;;;;;-141.97;41.04;47609.41;5034193;28;20177;-91
2023/10/08 04:40:52;;;;;;;10.37;6.90;;;;;;;-141.97;41.09;47467.19;5034131;28;20173;-90
2023/10/08 04:43:25;;;;;;;7.83;5.20;;;;;;;-141.97;41.03;47474.88;5034247;28;20171;-90
2023/10/08 04:45:51;;;;;;;13.90;8.07;;;;;;;-141.97;41.30;47349.94;5050546;28;20183;-90
2023/10/08 04:48:20;;;;;;;12.20;7.30;;;;;;;-141.97;41.13;47474.88;5050883;28;20165;-90
2023/10/08 04:50:59;;;;;;;13.23;7.77;;;;;;;-141.97;41.27;47553.69;5052352;28;20649;-91
2023/10/08 04:53:37;;;;;;;15.60;8.20;;;;;;;-141.97;41.63;47517.16;5052191;28;20271;-92
2023/10/08 04:56:18;;;;;;;14.53;7.77;;;;;;;-141.97;41.77;47580.59;5034395;28;20170;-90
2023/10/08 04:58:48;;;;;;;13.33;7.17;;;;;;;-141.97;42.04;47403.75;5034386;28;20466;-89
2023/10/08 05:01:18;;;;;;;13.07;7.23;;;;;;;-141.97;42.73;47501.78;5050418;28;20174;-88
2023/10/08 05:09:12;;;;;;;13.23;7.20;;;;;;;-141.97;43.81;47511.38;5051487;28;20172;-89
2023/10/08 05:17:09;;;;;;;13.03;7.00;;;;;;;-141.97;44.19;47526.75;5051265;28;20172;-88
2023/10/08 05:22:18;;;;;;;13.87;6.87;;;;;;;-141.97;43.98;47507.53;5051530;28;20608;-88
2023/10/08 05:25:24;;;;;;;13.77;6.70;;;;;;;-141.97;43.93;47509.47;5051013;28;20216;-88
2023/10/08 05:30:37;;;;;;;11.80;5.87;;;;;;;-141.97;43.63;47507.53;5051213;28;20172;-89
2023/10/08 05:41:27;;;;;;;7.53;5.53;;;;;;;-141.97;40.36;47499.84;5009638;28;20658;-89
2023/10/08 05:44:13;;;;;;;9.50;5.50;;;;;;;-141.97;40.17;47509.47;5009149;28;20198;-90
2023/10/08 05:46:46;;;;;;;14.50;5.70;;;;;;;-141.97;40.05;47669.00;5008979;28;20187;-87
2023/10/08 06:00:29;;;;;;;8.17;5.17;;;;;;;-141.97;37.67;47444.13;5047794;23;20162;-91
2023/10/08 06:18:17;;;;;;;9.80;6.00;;;;;;;-141.97;36.39;47480.63;4935115;29;20264;-88
2023/10/08 06:20:43;;;;;;;12.73;6.30;;;;;;;-141.97;36.50;47357.63;4935143;29;20233;-87
2023/10/08 06:23:18;;;;;;;13.63;6.07;;;;;;;-141.97;36.33;47499.84;4936570;29;20252;-88
2023/10/08 06:25:47;;;;;;;12.00;5.93;;;;;;;-141.97;36.20;47595.97;4935228;29;20177;-88
2023/10/08 06:28:12;;;;;;;12.90;6.13;;;;;;;-141.97;36.16;47486.41;4942954;29;20274;-89
2023/10/08 06:30:40;;;;;;;13.83;6.50;;;;;;;-141.97;35.92;47615.19;4940653;29;20173;-90
2023/10/08 06:33:07;;;;;;;16.23;7.37;;;;;;;-141.97;35.49;47665.16;4937937;29;20220;-89
2023/10/08 06:35:33;;;;;;;16.23;8.90;;;;;;;-141.97;34.56;47376.84;4941262;29;20222;-87
2023/10/08 06:38:07;;;;;;;18.40;9.17;;;;;;;-141.97;34.30;47432.59;4946239;29;20204;-87
2023/10/08 06:45:53;;;;;;;25.77;11.60;;;;;;;-141.97;33.55;47446.03;4938616;29;20199;-89
2023/10/08 06:48:25;;;;;;;31.20;13.53;;;;;;;-141.97;33.03;47538.28;4951730;29;20193;-88
2023/10/08 06:50:56;;;;;;;28.77;14.60;;;;;;;-141.97;32.89;47442.19;4936972;29;20295;-89
2023/10/08 06:53:22;;;;;;;26.60;13.00;;;;;;;-141.97;32.51;47474.88;4965240;28;20208;-91
2023/10/08 06:55:54;;;;;;;31.57;12.87;;;;;;;-141.97;32.01;47446.03;4960373;28;20263;-89
2023/10/08 06:58:20;;;;;;;28.37;13.50;;;;;;;-141.97;31.84;47384.53;4974727;28;20168;-89
2023/10/08 07:00:48;;;;;;;22.70;10.63;;;;;;;-141.97;31.73;47446.03;4974092;28;20231;-89
2023/10/08 07:03:15;;;;;;;24.60;11.40;;;;;;;-141.97;31.50;47259.63;4976089;28;20200;-92
2023/10/08 07:05:59;;;;;;;21.17;11.50;;;;;;;-141.97;31.28;47453.72;4974245;28;20270;-89
2023/10/08 07:08:27;;;;;;;18.50;10.20;;;;;;;-141.97;31.31;47488.31;4973468;28;20188;-89
2023/10/08 07:10:53;;;;;;;23.83;9.23;;;;;;;-141.97;31.54;47511.38;4989279;28;20192;-88
2023/10/08 07:13:21;;;;;;;21.17;10.23;;;;;;;-141.97;31.20;47407.59;4973381;28;20225;-93
2023/10/08 07:15:50;;;;;;;13.77;7.73;;;;;;;-141.97;30.93;47419.13;4955982;28;20717;-89
2023/10/08 07:18:26;;;;;;;13.57;6.40;;;;;;;-141.97;30.81;47226.94;4973079;28;20184;-87
2023/10/08 07:21:00;;;;;;;9.77;5.60;;;;;;;-141.97;31.00;47640.16;4972012;28;20620;-87
2023/10/08 07:23:34;;;;;;;11.50;5.77;;;;;;;-141.97;30.66;47444.13;5005890;28;20194;-89
2023/10/08 07:26:11;;;;;;;7.43;5.07;;;;;;;-141.97;30.50;47319.19;5014975;28;20260;-89
2023/10/08 07:28:41;;;;;;;8.93;4.63;;;;;;;-141.97;30.34;47396.06;5013048;28;20174;-87
2023/10/08 07:31:17;;;;;;;8.47;5.00;;;;;;;-141.97;30.26;47474.88;5012938;28;20173;-88
2023/10/08 07:33:47;;;;;;;9.03;5.10;;;;;;;-141.97;30.28;47419.13;5013100;28;20202;-87
2023/10/08 07:36:18;;;;;;;12.47;5.57;;;;;;;-141.97;30.38;47373.00;4995397;28;20270;-88
2023/10/08 07:38:44;;;;;;;10.10;5.20;;;;;;;-141.97;30.25;47472.94;5013793;28;20166;-88
2023/10/08 07:41:19;;;;;;;8.97;5.10;;;;;;;-141.97;29.95;47428.75;4995748;28;20175;-88
2023/10/08 07:43:58;;;;;;;11.60;5.97;;;;;;;-141.97;29.76;47461.41;5013536;28;20237;-93
2023/10/08 07:46:27;;;;;;;11.60;5.50;;;;;;;-141.97;29.44;47594.03;5028779;28;20178;-88
2023/10/08 07:48:58;;;;;;;15.00;5.53;;;;;;;-141.97;29.45;47630.56;5014906;28;20167;-86
2023/10/08 07:51:23;;;;;;;11.43;5.10;;;;;;;-141.97;29.02;47480.63;4998501;28;20178;-88
2023/10/08 07:53:54;;;;;;;11.57;5.00;;;;;;;-141.97;29.06;47424.91;5027592;28;20198;-88
2023/10/08 07:56:20;;;;;;;12.53;5.40;;;;;;;-141.97;29.02;47401.84;5012670;28;20163;-88
2023/10/08 07:58:45;;;;;;;10.63;4.87;;;;;;;-141.97;29.35;47615.19;4995238;28;20163;-88
2023/10/08 08:01:13;;;;;;;11.00;4.57;;;;;;;-141.97;29.24;47340.34;4995025;28;20276;-90
2023/10/08 08:03:42;;;;;;;6.67;4.53;;;;;;;-141.97;29.18;47603.66;5017850;28;20155;-89
2023/10/08 08:06:09;;;;;;;11.03;5.33;;;;;;;-141.97;28.69;47551.75;5019213;28;20167;-87
2023/10/08 08:08:36;;;;;;;8.50;4.40;;;;;;;-141.97;28.45;47167.38;5028533;28;20225;-89
2023/10/08 08:11:12;;;;;;;9.43;4.57;;;;;;;-141.97;27.99;47369.16;5031069;28;20189;-86
2023/10/08 08:13:39;;;;;;;9.43;5.37;;;;;;;-141.97;28.42;47255.78;5011707;28;20217;-87
2023/10/08 08:16:16;;;;;;;11.57;4.87;;;;;;;-141.97;28.00;47446.03;5015821;28;20246;-86
2023/10/08 08:18:46;;;;;;;8.60;4.80;;;;;;;-141.97;27.83;47455.66;5016455;28;20166;-90
2023/10/08 08:21:16;;;;;;;8.77;5.33;;;;;;;-141.97;27.74;47630.56;5015647;28;20236;-89
2023/10/08 08:23:49;;;;;;;7.23;4.17;;;;;;;-141.97;27.80;47342.25;4998222;28;20163;-88
2023/10/08 08:26:26;;;;;;;9.90;5.13;;;;;;;-141.97;27.69;47338.41;5013906;28;20191;-89
2023/10/08 08:28:56;;;;;;;8.27;4.13;;;;;;;-141.97;27.25;47392.22;5012600;28;20578;-88
2023/10/08 08:31:23;;;;;;;7.40;5.30;;;;;;;-141.97;27.09;47378.78;5012708;28;20162;-90
2023/10/08 08:33:59;;;;;;;7.53;4.10;;;;;;;-141.97;27.19;47588.28;5013003;28;20542;-89
2023/10/08 08:36:26;;;;;;;7.50;4.53;;;;;;;-141.97;27.18;47547.91;5012269;28;20253;-90
2023/10/08 08:38:52;;;;;;;9.30;4.50;;;;;;;-141.97;26.88;47484.47;4999475;28;20619;-89
2023/10/08 08:41:20;;;;;;;8.70;5.00;;;;;;;-141.97;27.27;47353.78;5030944;28;20167;-91
2023/10/08 08:43:59;;;;;;;9.87;5.20;;;;;;;-141.97;27.17;47421.06;5028145;28;20674;-91
2023/10/08 08:46:30;;;;;;;6.17;4.30;;;;;;;-141.97;26.79;47332.66;5012267;28;20582;-91
2023/10/08 08:48:57;;;;;;;7.37;4.30;;;;;;;-141.97;26.89;47421.06;5012639;28;20178;-90
2023/10/08 08:51:23;;;;;;;6.90;4.70;;;;;;;-141.97;26.77;47405.69;5011364;28;20243;-89
2023/10/08 08:53:49;;;;;;;9.20;5.03;;;;;;;-141.97;26.55;47190.44;5011453;28;20493;-89
2023/10/08 08:56:15;;;;;;;7.22;4.40;;;;;;;-141.97;26.17;47415.28;5012524;28;20701;-89
2023/10/08 08:58:43;;;;;;;9.45;4.57;;;;;;;-141.97;26.31;47599.81;5012329;28;20165;-89
2023/10/08 09:01:13;;;;;;;8.95;5.00;;;;;;;-141.97;26.65;47340.34;5010318;28;20222;-88
2023/10/08 09:03:39;;;;;;;9.43;4.80;;;;;;;-141.97;26.26;47638.25;5012510;28;20167;-90
2023/10/08 09:06:05;;;;;;;7.82;4.63;;;;;;;-141.97;26.42;47563.28;5012698;28;20195;-90
2023/10/08 09:08:35;;;;;;;13.43;4.35;;;;;;;-141.97;26.41;47253.84;5011699;28;20157;-89
2023/10/08 09:11:01;;;;;;;8.57;4.90;;;;;;;-141.97;26.25;47396.06;4994140;28;20187;-90
2023/10/08 09:13:27;;;;;;;10.18;4.57;;;;;;;-141.97;26.24;47223.09;5011733;28;20194;-90
2023/10/08 09:16:03;;;;;;;8.30;4.50;;;;;;;-141.97;26.01;47288.44;5010243;28;20185;-91
2023/10/08 09:18:32;;;;;;;7.32;4.47;;;;;;;-141.97;25.86;47557.53;5012713;28;20169;-91
2023/10/08 09:21:10;;;;;;;7.25;4.82;;;;;;;-141.97;26.02;47230.78;5012877;28;20219;-90
2023/10/08 09:23:39;;;;;;;7.13;4.50;;;;;;;-141.97;26.21;47117.41;5015806;28;20169;-90
2023/10/08 09:26:04;;;;;;;7.95;4.18;;;;;;;-141.97;26.40;47373.00;5014961;28;20182;-89
2023/10/08 09:28:34;;;;;;;12.95;4.88;;;;;;;-141.97;26.41;47620.94;5018607;28;20175;-87
2023/10/08 09:31:00;;;;;;;24.05;5.70;;;;;;;-141.97;26.21;47557.53;5022899;28;20185;-89
2023/10/08 09:33:28;;;;;;;12.52;5.18;;;;;;;-141.97;25.89;47299.97;4996053;28;20212;-91
2023/10/08 09:35:57;;;;;;;17.30;6.18;;;;;;;-141.97;25.86;47292.28;5007535;28;20185;-88
2023/10/08 09:38:23;;;;;;;8.20;4.40;;;;;;;-141.97;26.11;47398.00;5022619;28;20177;-90
2023/10/08 09:40:49;;;;;;;9.52;4.40;;;;;;;-141.97;26.36;47380.69;5022013;28;20187;-90
2023/10/08 09:43:16;;;;;;;13.85;4.50;;;;;;;-141.97;26.03;47150.06;5014399;28;20601;-89
2023/10/08 09:45:53;;;;;;;8.05;4.60;;;;;;;-141.97;26.04;47371.09;5016136;28;20190;-89
2023/10/08 09:48:22;;;;;;;21.17;4.55;;;;;;;-141.97;26.20;47246.16;5018716;28;20181;-91
2023/10/08 09:50:48;;;;;;;7.53;4.40;;;;;;;-141.97;26.18;47534.44;5009440;28;20187;-90
2023/10/08 09:53:16;;;;;;;8.20;4.47;;;;;;;-141.97;26.17;47226.94;5016999;28;20204;-89
2023/10/08 09:55:54;;;;;;;9.25;4.90;;;;;;;-141.97;26.29;47373.00;5020366;28;20158;-90
2023/10/08 09:58:22;;;;;;;9.45;4.70;;;;;;;-141.97;26.37;47226.94;5014603;28;20214;-90
2023/10/08 10:00:48;;;;;;;9.05;5.18;;;;;;;-141.97;26.10;47365.31;4997816;28;20229;-90
2023/10/08 10:03:14;;;;;;;6.78;4.47;;;;;;;-141.97;25.89;47398.00;5014414;28;20188;-89
2023/10/08 10:05:44;;;;;;;8.43;5.20;;;;;;;-141.97;25.69;47182.75;5014686;28;20177;-90
2023/10/08 10:08:10;;;;;;;7.53;4.57;;;;;;;-141.97;25.70;47107.78;5014648;28;20185;-89
2023/10/08 10:10:38;;;;;;;7.47;4.40;;;;;;;-141.97;25.96;47336.50;5015149;28;20202;-90
2023/10/08 10:13:10;;;;;;;9.55;4.80;;;;;;;-141.97;26.06;47215.41;5019191;28;20228;-91
2023/10/08 10:15:41;;;;;;;9.82;4.60;;;;;;;-141.97;26.06;47342.25;5029535;28;20264;-87
2023/10/08 10:18:14;;;;;;;7.68;4.72;;;;;;;-141.97;26.22;47132.78;5022307;28;20163;-89
2023/10/08 10:20:45;;;;;;;9.13;4.93;;;;;;;-141.97;26.18;47346.09;5034152;28;20161;-87
2023/10/08 10:23:40;;;;;;;7.32;4.13;;;;;;;-141.97;26.49;47328.81;5038548;28;20185;-87
2023/10/08 10:26:22;;;;;;;8.20;4.38;;;;;;;-141.97;26.44;47351.88;5025105;28;20173;-88
2023/10/08 10:29:10;;;;;;;9.63;4.45;;;;;;;-141.97;26.21;47315.34;5014145;28;20529;-91
2023/10/08 10:31:46;;;;;;;8.02;4.13;;;;;;;-141.97;26.32;47355.72;5014174;28;20229;-90
2023/10/08 10:34:15;;;;;;;7.30;3.55;;;;;;;-141.97;26.13;47388.38;5035940;28;20212;-91
2023/10/08 10:36:42;;;;;;;8.75;4.28;;;;;;;-141.97;26.56;47376.84;5020735;28;20269;-90
2023/10/08 10:39:16;;;;;;;7.53;4.28;;;;;;;-141.97;26.29;47349.94;5021558;28;20261;-90
2023/10/08 10:41:48;;;;;;;35.95;6.70;;;;;;;-141.97;26.44;47340.34;5018721;28;20162;-89
2023/10/08 10:44:15;;;;;;;20.02;4.72;;;;;;;-141.97;26.41;47200.03;5019461;28;20158;-90
2023/10/08 10:46:50;;;;;;;12.75;4.30;;;;;;;-141.97;26.40;47180.81;5018164;28;20167;-89
2023/10/08 10:49:18;;;;;;;9.70;4.03;;;;;;;-141.97;26.29;47321.13;5013555;28;20207;-90
2023/10/08 10:51:46;;;;;;;18.83;7.25;;;;;;;-141.97;26.38;47096.25;5014479;28;20261;-91
2023/10/08 10:54:19;;;;;;;13.85;6.35;;;;;;;-141.97;26.59;47236.56;5013321;28;20199;-90
2023/10/08 10:56:47;;;;;;;6.30;3.92;;;;;;;-141.97;26.71;47269.22;5015549;28;20162;-90
2023/10/08 10:59:18;;;;;;;10.00;4.40;;;;;;;-141.97;26.75;47299.97;5014819;28;20160;-88
2023/10/08 11:01:52;;;;;;;5.97;3.42;;;;;;;-141.97;26.65;47542.16;5014563;28;20309;-89
2023/10/08 11:04:28;;;;;;;8.68;4.18;;;;;;;-141.97;26.94;47336.50;5014657;28;20626;-90
2023/10/08 11:06:58;;;;;;;10.75;4.35;;;;;;;-141.97;26.93;47219.25;5013069;28;20180;-90
2023/10/08 11:09:38;;;;;;;7.80;3.83;;;;;;;-141.97;26.64;47324.97;5014270;28;20489;-90
2023/10/08 11:12:11;;;;;;;9.30;3.92;;;;;;;-141.97;26.86;47165.44;5014746;28;20166;-89
2023/10/08 11:14:42;;;;;;;7.38;3.88;;;;;;;-141.97;26.55;47567.13;5013259;28;20216;-90
2023/10/08 11:17:16;;;;;;;7.43;3.47;;;;;;;-141.97;26.87;47298.06;5016375;28;20630;-90
2023/10/08 11:19:45;;;;;;;8.70;3.75;;;;;;;-141.97;26.96;47226.94;5016116;28;20254;-91
2023/10/08 11:22:16;;;;;;;11.63;4.03;;;;;;;-141.97;26.70;47361.47;5014929;28;20670;-90
2023/10/08 11:24:44;;;;;;;7.18;3.60;;;;;;;-141.97;26.87;47578.66;5014106;28;20163;-90
2023/10/08 11:27:16;;;;;;;11.32;4.00;;;;;;;-141.97;26.88;47336.50;5013507;28;20170;-90
2023/10/08 11:29:47;;;;;;;7.90;3.83;;;;;;;-141.97;26.87;47332.66;4997499;28;20171;-89
2023/10/08 11:32:17;;;;;;;9.98;4.25;;;;;;;-141.97;26.64;47453.72;5014422;28;20166;-89
2023/10/08 11:34:49;;;;;;;7.95;4.22;;;;;;;-141.97;26.81;47430.66;5016143;28;20197;-89
2023/10/08 11:37:26;;;;;;;7.95;3.72;;;;;;;-141.97;27.04;47259.63;5015103;28;20167;-89
2023/10/08 11:39:53;;;;;;;8.77;4.18;;;;;;;-141.97;27.05;47553.69;5014696;28;20204;-90
2023/10/08 11:42:40;;;;;;;5.75;3.67;;;;;;;-141.97;27.01;47188.50;5013956;28;20159;-90
2023/10/08 11:45:19;;;;;;;8.20;3.70;;;;;;;-141.97;26.81;47342.25;5014313;28;20167;-89
2023/10/08 11:47:55;;;;;;;7.45;3.72;;;;;;;-141.97;27.13;47319.19;5012188;28;20171;-89
2023/10/08 11:50:30;;;;;;;9.85;3.97;;;;;;;-141.97;26.81;47251.94;5012275;28;20163;-89
2023/10/08 11:53:02;;;;;;;11.82;4.40;;;;;;;-141.97;26.50;47169.28;5013526;28;20207;-89
2023/10/08 11:55:28;;;;;;;7.82;4.50;;;;;;;-141.97;26.48;47526.75;5013133;28;20604;-90
2023/10/08 11:57:54;;;;;;;9.38;3.90;;;;;;;-141.97;26.64;47284.59;5014760;28;20231;-90
2023/10/08 12:00:20;;;;;;;8.50;4.10;;;;;;;-141.97;26.61;47219.25;5013530;28;20217;-89
2023/10/08 12:02:49;;;;;;;8.27;3.58;;;;;;;-141.97;26.60;47144.31;5013912;28;20634;-89
2023/10/08 12:05:23;;;;;;;8.95;4.25;;;;;;;-141.97;26.67;47178.91;4996394;28;20205;-91
2023/10/08 12:07:52;;;;;;;9.45;4.13;;;;;;;-141.97;26.41;47032.84;5013683;28;20167;-91
2023/10/08 12:10:22;;;;;;;11.75;4.32;;;;;;;-141.97;26.24;47299.97;5014256;28;20161;-90
2023/10/08 12:12:54;;;;;;;8.77;4.43;;;;;;;-141.97;26.54;47490.25;5013575;28;20266;-91
2023/10/08 12:15:33;;;;;;;14.65;4.60;;;;;;;-141.97;26.29;47488.31;5014034;28;20162;-89
2023/10/08 12:18:08;;;;;;;10.38;4.55;;;;;;;-141.97;26.24;47303.81;5012289;28;20181;-90
2023/10/08 12:20:38;;;;;;;8.85;3.72;;;;;;;-141.97;26.44;47342.25;5014149;28;20614;-90
2023/10/08 12:23:10;;;;;;;12.70;4.60;;;;;;;-141.97;26.01;47298.06;5013811;28;20196;-88
2023/10/08 12:25:37;;;;;;;9.32;3.97;;;;;;;-141.97;25.66;47219.25;5008521;28;20178;-89
2023/10/08 12:28:04;;;;;;;12.02;4.72;;;;;;;-141.97;25.88;47265.38;5036309;28;20233;-91
2023/10/08 12:30:41;;;;;;;11.65;5.13;;;;;;;-141.97;25.61;47315.34;5031145;28;20174;-89
2023/10/08 12:33:07;;;;;;;8.73;4.30;;;;;;;-141.97;26.01;47271.16;5018451;28;20216;-87
2023/10/08 12:35:32;;;;;;;8.35;4.53;;;;;;;-141.97;26.01;47113.56;5019591;28;20308;-90